createdAt,value
2023-05-17T00:00:04.351Z,0.063
2023-05-17T00:02:04.299Z,0.063
2023-05-17T00:04:04.356Z,0.062
2023-05-17T00:06:04.402Z,0.062
2023-05-17T00:08:04.341Z,0.061
2023-05-17T00:10:04.622Z,0.062
2023-05-17T00:12:04.405Z,0.062
2023-05-17T00:14:04.515Z,0.062
2023-05-17T00:16:04.311Z,0.061
2023-05-17T00:18:04.560Z,0.061
2023-05-17T00:20:04.382Z,0.062
2023-05-17T00:22:04.375Z,0.062
2023-05-17T00:24:04.380Z,0.065
2023-05-17T00:26:04.554Z,0.064
2023-05-17T00:28:04.352Z,0.064
2023-05-17T00:30:05.021Z,0.064
2023-05-17T00:32:05.986Z,0.063
2023-05-17T00:34:09.528Z,0.064
2023-05-17T00:36:04.451Z,0.064
2023-05-17T00:38:04.541Z,0.065
2023-05-17T00:40:04.513Z,0.064
2023-05-17T00:42:04.469Z,0.064
2023-05-17T00:44:07.862Z,0.065
2023-05-17T00:46:04.363Z,0.066
2023-05-17T00:48:04.479Z,0.065
2023-05-17T00:50:04.388Z,0.066
2023-05-17T00:52:04.430Z,0.065
2023-05-17T00:55:04.456Z,0.062
2023-05-17T00:57:04.475Z,0.061
2023-05-17T00:58:07.276Z,0.061
2023-05-17T01:01:04.454Z,0.062
2023-05-17T01:03:04.478Z,0.063
2023-05-17T01:05:04.457Z,0.062
2023-05-17T01:07:04.421Z,0.061
2023-05-17T01:09:04.426Z,0.063
2023-05-17T01:11:04.463Z,0.061
2023-05-17T01:13:04.379Z,0.062
2023-05-17T01:15:04.799Z,0.062
2023-05-17T01:17:04.489Z,0.063
2023-05-17T01:19:04.551Z,0.062
2023-05-17T01:21:04.470Z,0.063
2023-05-17T01:23:04.394Z,0.065
2023-05-17T01:25:04.381Z,0.064
2023-05-17T01:27:04.400Z,0.063
2023-05-17T01:29:09.288Z,0.063
2023-05-17T01:31:04.493Z,0.065
2023-05-17T01:33:04.582Z,0.068
2023-05-17T01:35:04.430Z,0.066
2023-05-17T01:37:04.357Z,0.066
2023-05-17T01:39:04.415Z,0.067
2023-05-17T01:41:04.369Z,0.067
2023-05-17T01:43:04.607Z,0.068
2023-05-17T01:45:04.601Z,0.067
2023-05-17T01:47:04.400Z,0.066
2023-05-17T01:49:04.429Z,0.067
2023-05-17T01:51:04.450Z,0.069
2023-05-17T01:53:04.446Z,0.069
2023-05-17T01:55:04.580Z,0.071
2023-05-17T01:57:04.405Z,0.070
2023-05-17T01:59:04.424Z,0.070
2023-05-17T02:01:04.501Z,0.068
2023-05-17T02:03:04.487Z,0.069
2023-05-17T02:05:04.563Z,0.068
2023-05-17T02:07:04.970Z,0.068
2023-05-17T02:09:04.457Z,0.070
2023-05-17T02:11:04.497Z,0.072
2023-05-17T02:13:04.778Z,0.070
2023-05-17T02:18:28.860Z,0.073
2023-05-17T02:20:29.104Z,0.073
2023-05-17T02:23:28.613Z,0.069
2023-05-17T02:25:28.819Z,0.068
2023-05-17T02:27:29.446Z,0.069
2023-05-17T02:29:28.733Z,0.070
2023-05-17T02:30:31.754Z,0.068
2023-05-17T02:33:28.891Z,0.066
2023-05-17T02:35:28.877Z,0.066
2023-05-17T02:37:28.531Z,0.065
2023-05-17T02:39:28.519Z,0.063
2023-05-17T02:41:28.571Z,0.063
2023-05-17T02:43:28.637Z,0.060
2023-05-17T02:45:28.826Z,0.062
2023-05-17T02:47:28.692Z,0.063
2023-05-17T02:49:28.704Z,0.062
2023-05-17T02:51:28.598Z,0.059
2023-05-17T02:53:28.731Z,0.060
2023-05-17T02:55:28.944Z,0.061
2023-05-17T02:57:28.588Z,0.064
2023-05-17T02:59:28.606Z,0.065
2023-05-17T03:01:31.447Z,0.069
2023-05-17T03:03:28.807Z,0.070
2023-05-17T03:05:28.957Z,0.071
2023-05-17T03:07:28.761Z,0.072
2023-05-17T03:09:28.636Z,0.068
2023-05-17T03:11:28.683Z,0.068
2023-05-17T03:13:28.600Z,0.068
2023-05-17T03:15:28.690Z,0.067
2023-05-17T03:17:29.010Z,0.066
2023-05-17T03:19:28.666Z,0.064
2023-05-17T03:21:32.342Z,0.065
2023-05-17T03:23:28.686Z,0.065
2023-05-17T03:25:30.189Z,0.066
2023-05-17T03:27:28.603Z,0.067
2023-05-17T03:29:28.599Z,0.067
2023-05-17T03:31:28.654Z,0.068
2023-05-17T03:33:34.844Z,0.068
2023-05-17T03:35:28.870Z,0.069
2023-05-17T03:37:28.605Z,0.072
2023-05-17T03:39:28.766Z,0.072
2023-05-17T03:41:28.672Z,0.070
2023-05-17T03:43:28.583Z,0.073
2023-05-17T03:45:28.819Z,0.070
2023-05-17T03:47:28.827Z,0.071
2023-05-17T03:49:28.524Z,0.072
2023-05-17T03:51:28.899Z,0.073
2023-05-17T03:53:28.601Z,0.073
2023-05-17T03:55:28.842Z,0.074
2023-05-17T03:57:37.570Z,0.072
2023-05-17T03:59:28.622Z,0.071
2023-05-17T04:01:34.305Z,0.069
2023-05-17T04:03:31.496Z,0.069
2023-05-17T04:05:28.763Z,0.067
2023-05-17T04:07:31.669Z,0.066
2023-05-17T04:09:29.201Z,0.068
2023-05-17T04:11:28.602Z,0.067
2023-05-17T04:13:28.702Z,0.067
2023-05-17T04:15:28.804Z,0.067
2023-05-17T04:17:33.537Z,0.068
2023-05-17T04:19:28.831Z,0.069
2023-05-17T04:21:28.624Z,0.068
2023-05-17T04:23:28.605Z,0.069
2023-05-17T04:25:28.829Z,0.067
2023-05-17T04:27:28.725Z,0.067
2023-05-17T04:29:28.573Z,0.068
2023-05-17T04:31:28.664Z,0.065
2023-05-17T04:33:28.708Z,0.064
2023-05-17T04:35:28.844Z,0.065
2023-05-17T04:37:28.671Z,0.063
2023-05-17T04:39:30.849Z,0.065
2023-05-17T04:41:28.735Z,0.069
2023-05-17T04:43:28.664Z,0.068
2023-05-17T04:45:28.895Z,0.068
2023-05-17T04:47:28.804Z,0.069
2023-05-17T04:49:28.673Z,0.066
2023-05-17T04:51:31.308Z,0.064
2023-05-17T04:53:28.783Z,0.064
2023-05-17T04:55:28.942Z,0.064
2023-05-17T04:57:28.631Z,0.064
2023-05-17T04:59:28.730Z,0.064
2023-05-17T05:01:28.977Z,0.062
2023-05-17T05:03:28.635Z,0.062
2023-05-17T05:05:33.589Z,0.064
2023-05-17T05:07:28.661Z,0.065
2023-05-17T05:09:28.682Z,0.065
2023-05-17T05:11:31.424Z,0.065
2023-05-17T05:13:28.687Z,0.066
2023-05-17T05:15:34.386Z,0.065
2023-05-17T05:17:29.035Z,0.065
2023-05-17T05:19:28.718Z,0.066
2023-05-17T05:21:28.638Z,0.070
2023-05-17T05:23:28.650Z,0.068
2023-05-17T05:25:29.202Z,0.071
2023-05-17T05:27:28.720Z,0.071
2023-05-17T05:29:28.628Z,0.071
2023-05-17T05:31:28.703Z,0.073
2023-05-17T05:33:28.635Z,0.073
2023-05-17T05:35:28.865Z,0.072
2023-05-17T05:37:28.678Z,0.075
2023-05-17T05:39:28.606Z,0.075
2023-05-17T05:41:28.637Z,0.072
2023-05-17T05:43:28.654Z,0.072
2023-05-17T05:45:28.915Z,0.072
2023-05-17T05:48:28.707Z,0.073
2023-05-17T05:50:32.558Z,0.077
2023-05-17T05:52:28.682Z,0.075
2023-05-17T05:54:28.656Z,0.076
2023-05-17T05:55:31.901Z,0.074
2023-05-17T05:58:29.160Z,0.076
2023-05-17T06:00:28.880Z,0.076
2023-05-17T06:02:28.646Z,0.077
2023-05-17T06:04:40.659Z,0.077
2023-05-17T06:06:28.713Z,0.076
2023-05-17T06:08:28.610Z,0.075
2023-05-17T06:10:28.788Z,0.074
2023-05-17T06:12:28.789Z,0.075
2023-05-17T06:14:28.677Z,0.057
2023-05-17T06:16:28.625Z,0.043
2023-05-17T06:18:28.698Z,0.041
2023-05-17T06:20:34.706Z,0.059
2023-05-17T06:22:29.189Z,0.062
2023-05-17T06:24:28.746Z,0.062
2023-05-17T06:26:28.651Z,0.067
2023-05-17T06:28:28.633Z,0.069
2023-05-17T06:30:31.852Z,0.069
2023-05-17T06:32:30.173Z,0.066
2023-05-17T06:34:28.676Z,0.067
2023-05-17T06:36:28.814Z,0.066
2023-05-17T06:38:31.775Z,0.067
2023-05-17T06:40:28.733Z,0.066
2023-05-17T06:42:29.363Z,0.071
2023-05-17T06:44:28.638Z,0.071
2023-05-17T06:46:28.940Z,0.071
2023-05-17T06:48:28.748Z,0.072
2023-05-17T06:50:29.037Z,0.075
2023-05-17T06:52:28.729Z,0.075
2023-05-17T06:54:31.577Z,0.073
2023-05-17T06:56:34.664Z,0.070
2023-05-17T06:58:28.736Z,0.069
2023-05-17T07:00:29.045Z,0.069
2023-05-17T07:02:33.082Z,0.069
2023-05-17T07:04:31.288Z,0.068
2023-05-17T07:06:30.697Z,0.068
2023-05-17T07:08:28.684Z,0.067
2023-05-17T07:10:32.067Z,0.067
2023-05-17T07:12:29.211Z,0.067
2023-05-17T07:14:31.516Z,0.066
2023-05-17T07:16:28.693Z,0.068
2023-05-17T07:18:28.917Z,0.068
2023-05-17T07:20:31.562Z,0.067
2023-05-17T07:22:28.734Z,0.066
2023-05-17T07:24:29.936Z,0.067
2023-05-17T07:26:28.751Z,0.067
2023-05-17T07:28:28.728Z,0.067
2023-05-17T07:30:28.748Z,0.067
2023-05-17T07:32:28.735Z,0.068
2023-05-17T07:34:28.723Z,0.070
2023-05-17T07:36:28.940Z,0.069
2023-05-17T07:38:28.769Z,0.068
2023-05-17T07:40:28.793Z,0.069
2023-05-17T07:42:28.766Z,0.069
2023-05-17T07:44:31.568Z,0.069
2023-05-17T07:46:34.809Z,0.069
2023-05-17T07:48:28.822Z,0.067
2023-05-17T07:50:37.664Z,0.063
2023-05-17T07:52:34.676Z,0.063
2023-05-17T07:54:28.760Z,0.063
2023-05-17T07:56:28.895Z,0.065
2023-05-17T07:58:28.702Z,0.065
2023-05-17T08:00:34.371Z,0.065
2023-05-17T08:02:31.659Z,0.066
2023-05-17T08:04:28.786Z,0.067
2023-05-17T08:06:28.741Z,0.066
2023-05-17T08:08:31.657Z,0.067
2023-05-17T08:10:33.940Z,0.067
2023-05-17T08:12:37.513Z,0.067
2023-05-17T08:14:34.613Z,0.069
2023-05-17T08:20:28.735Z,0.071
2023-05-17T08:22:28.716Z,0.071
2023-05-17T08:24:28.806Z,0.069
2023-05-17T08:26:34.749Z,0.069
2023-05-17T08:28:34.668Z,0.069
2023-05-17T08:30:29.559Z,0.070
2023-05-17T08:32:31.426Z,0.067
2023-05-17T08:34:31.751Z,0.066
2023-05-17T08:36:31.601Z,0.067
2023-05-17T08:38:34.339Z,0.067
2023-05-17T22:00:36.247Z,0.064
2023-05-17T22:02:36.578Z,0.062
2023-05-17T22:04:36.491Z,0.062
2023-05-17T22:06:38.839Z,0.064
2023-05-17T22:08:42.549Z,0.062
2023-05-17T22:10:39.162Z,0.061
2023-05-17T22:12:41.867Z,0.058
2023-05-17T22:14:36.322Z,0.058
2023-05-17T22:16:36.335Z,0.057
2023-05-17T22:18:38.882Z,0.057
2023-05-17T22:20:36.286Z,0.059
2023-05-17T22:22:36.360Z,0.056
2023-05-17T22:24:36.268Z,0.054
2023-05-17T22:26:36.436Z,0.054
2023-05-17T22:28:36.347Z,0.055
2023-05-17T22:30:39.101Z,0.054
2023-05-17T22:32:39.282Z,0.055
2023-05-17T22:34:36.270Z,0.056
2023-05-17T22:36:36.237Z,0.056
2023-05-17T22:38:36.260Z,0.055
2023-05-17T22:40:36.494Z,0.056
2023-05-17T22:42:39.519Z,0.056
2023-05-17T22:44:36.369Z,0.055
2023-05-17T22:46:36.451Z,0.054
2023-05-17T22:48:36.301Z,0.054
2023-05-17T22:50:36.329Z,0.057
2023-05-17T22:52:36.462Z,0.058
2023-05-17T22:54:36.371Z,0.058
2023-05-17T22:56:36.276Z,0.060
2023-05-17T22:58:36.254Z,0.059
2023-05-17T23:00:36.524Z,0.059
2023-05-17T23:02:36.307Z,0.059
2023-05-17T23:04:38.899Z,0.057
2023-05-17T23:06:36.357Z,0.056
2023-05-17T23:08:36.254Z,0.056
2023-05-17T23:10:36.247Z,0.056
2023-05-17T23:12:36.323Z,0.057
2023-05-17T23:14:36.355Z,0.058
2023-05-17T23:16:36.338Z,0.059
2023-05-17T23:18:36.415Z,0.059
2023-05-17T23:20:36.239Z,0.059
2023-05-17T23:22:37.484Z,0.060
2023-05-17T23:24:36.307Z,0.059
2023-05-17T23:26:36.302Z,0.059
2023-05-17T23:28:36.286Z,0.061
2023-05-17T23:30:36.294Z,0.061
2023-05-17T23:32:36.312Z,0.058
2023-05-17T23:34:36.342Z,0.056
2023-05-17T23:36:36.334Z,0.056
2023-05-17T23:38:36.319Z,0.057
2023-05-17T23:40:36.300Z,0.057
2023-05-17T23:42:36.511Z,0.057
2023-05-17T23:44:36.547Z,0.058
2023-05-17T23:46:36.634Z,0.059
2023-05-17T23:48:36.274Z,0.061
2023-05-17T23:50:36.256Z,0.062
2023-05-17T23:52:36.376Z,0.060
2023-05-17T23:54:36.318Z,0.060
2023-05-17T23:56:36.395Z,0.058
2023-05-17T23:58:36.265Z,0.059
